Time;durP1;ratioP1;P1;durP2;ratioP2;P2;SDS_P1;SDS_P2;PMS_P1;PMS_P2;Temp;Humidity;BMP_temperature;BMP_pressure;BME280_temperature;BME280_humidity;BME280_pressure;Samples;Min_cycle;Max_cycle;Signal;HPM_P1;HPM_P2
2021/04/18 00:00:55;;;;;;;21.48;8.77;;;12.50;79.70;;;;;;5095821;28;22060;-74
2021/04/18 00:03:22;;;;;;;22.48;8.50;;;12.50;79.80;;;;;;5095312;28;20421;-75
2021/04/18 00:05:50;;;;;;;22.63;8.07;;;12.50;80.30;;;;;;5122213;28;20494;-75
2021/04/18 00:08:16;;;;;;;16.88;7.32;;;12.40;80.70;;;;;;5111525;28;20400;-74
2021/04/18 00:10:43;;;;;;;21.88;8.13;;;12.40;81.20;;;;;;5129656;28;20981;-75
2021/04/18 00:13:12;;;;;;;19.48;7.50;;;12.40;81.40;;;;;;5125803;28;20406;-75
2021/04/18 00:15:39;;;;;;;21.93;7.90;;;12.40;81.80;;;;;;5102907;28;20426;-75
2021/04/18 00:18:06;;;;;;;23.13;7.45;;;12.40;82.00;;;;;;5097005;28;20475;-75
2021/04/18 00:20:32;;;;;;;23.23;7.75;;;12.40;82.20;;;;;;5126720;28;20418;-74
2021/04/18 00:23:00;;;;;;;21.77;7.43;;;12.30;82.50;;;;;;5092321;28;20447;-74
2021/04/18 00:25:26;;;;;;;17.63;6.97;;;12.30;82.80;;;;;;5111369;28;20503;-75
2021/04/18 00:27:53;;;;;;;17.30;7.10;;;12.30;83.10;;;;;;5128311;27;20424;-76
2021/04/18 00:30:21;;;;;;;19.15;7.28;;;12.30;83.10;;;;;;5117082;27;20487;-75
2021/04/18 00:32:48;;;;;;;22.77;7.47;;;12.30;83.50;;;;;;5095634;28;20407;-75
2021/04/18 00:35:16;;;;;;;23.58;7.50;;;12.30;83.80;;;;;;5125659;27;20444;-74
2021/04/18 00:37:43;;;;;;;23.13;7.43;;;12.30;84.00;;;;;;5113843;27;20971;-75
2021/04/18 00:40:12;;;;;;;23.75;7.38;;;12.20;84.10;;;;;;5107029;28;20411;-75
2021/04/18 00:42:38;;;;;;;21.00;7.50;;;12.20;84.20;;;;;;5104630;27;20422;-74
2021/04/18 00:45:06;;;;;;;22.40;7.50;;;12.20;84.50;;;;;;5102809;28;20456;-74
2021/04/18 00:47:33;;;;;;;20.65;8.10;;;12.20;84.70;;;;;;5121616;27;20426;-74
2021/04/18 00:50:00;;;;;;;20.73;7.95;;;12.20;84.80;;;;;;5122462;27;20488;-75
2021/04/18 00:52:27;;;;;;;18.27;7.03;;;12.20;84.90;;;;;;5112499;28;20426;-75
2021/04/18 00:54:53;;;;;;;25.80;7.97;;;12.10;85.00;;;;;;5118047;27;20420;-74
2021/04/18 00:57:21;;;;;;;19.53;7.43;;;12.10;85.00;;;;;;5105670;28;20455;-75
2021/04/18 00:59:48;;;;;;;22.15;7.95;;;12.10;85.20;;;;;;5115218;27;20469;-74
2021/04/18 01:02:15;;;;;;;19.52;8.00;;;12.10;85.40;;;;;;5099818;28;20420;-74
2021/04/18 01:04:42;;;;;;;21.90;7.82;;;12.10;85.50;;;;;;5122061;27;20433;-74
2021/04/18 01:07:08;;;;;;;19.70;7.45;;;12.00;85.10;;;;;;5117437;27;20406;-74
2021/04/18 01:09:35;;;;;;;22.45;7.68;;;12.00;85.30;;;;;;5112794;27;20426;-74
2021/04/18 01:12:01;;;;;;;21.75;7.82;;;12.00;85.40;;;;;;5102130;27;20479;-75
2021/04/18 01:14:29;;;;;;;19.58;7.15;;;11.90;85.30;;;;;;5106446;28;20418;-74
2021/04/18 01:16:57;;;;;;;18.10;7.47;;;11.90;85.40;;;;;;5118113;27;20446;-73
2021/04/18 01:19:24;;;;;;;24.17;7.60;;;11.90;85.70;;;;;;5102644;28;20427;-74
2021/04/18 01:21:52;;;;;;;21.40;7.43;;;11.90;85.90;;;;;;5102029;28;20435;-75
2021/04/18 01:24:45;;;;;;;22.25;7.40;;;11.80;85.80;;;;;;5095449;28;20911;-73
2021/04/18 01:27:31;;;;;;;23.15;7.50;;;11.80;85.90;;;;;;5113558;27;20472;-75
2021/04/18 01:29:58;;;;;;;19.67;7.30;;;11.80;85.90;;;;;;5093454;28;20499;-73
2021/04/18 01:32:24;;;;;;;19.83;7.50;;;11.80;86.00;;;;;;5118886;27;20436;-73
2021/04/18 01:34:52;;;;;;;18.85;7.47;;;11.80;86.00;;;;;;5114236;27;20418;-74
2021/04/18 01:37:20;;;;;;;21.67;7.90;;;11.80;86.20;;;;;;5112351;27;20426;-73
2021/04/18 01:39:47;;;;;;;19.27;7.30;;;11.70;86.40;;;;;;5114699;27;20411;-76
2021/04/18 01:42:14;;;;;;;21.90;7.85;;;11.70;86.50;;;;;;5121123;27;20429;-74
2021/04/18 01:44:42;;;;;;;20.70;7.10;;;11.70;86.30;;;;;;5095282;28;20688;-74
2021/04/18 01:47:09;;;;;;;17.63;6.63;;;11.30;87.10;;;;;;5096299;28;20194;-75
2021/04/18 01:49:37;;;;;;;23.63;7.72;;;11.00;88.00;;;;;;5093653;28;20466;-74
2021/04/18 01:52:04;;;;;;;19.25;7.30;;;11.20;89.00;;;;;;5118622;27;20414;-75
2021/04/18 01:54:32;;;;;;;19.92;7.43;;;11.30;88.20;;;;;;5097683;28;20461;-74
2021/04/18 01:56:59;;;;;;;18.38;7.50;;;11.40;87.60;;;;;;5125646;27;20524;-73
2021/04/18 01:59:26;;;;;;;19.77;6.78;;;11.40;87.30;;;;;;5101688;27;20410;-76
2021/04/18 02:02:07;;;;;;;20.63;6.90;;;11.50;87.10;;;;;;5108004;28;20845;-76
2021/04/18 02:04:33;;;;;;;21.95;7.28;;;11.50;87.10;;;;;;5102900;27;20949;-75
2021/04/18 02:07:04;;;;;;;20.30;6.60;;;11.40;87.10;;;;;;5103520;27;20432;-75
2021/04/18 02:09:34;;;;;;;16.88;7.07;;;11.40;87.10;;;;;;5109415;27;20427;-73
2021/04/18 02:12:06;;;;;;;17.40;6.95;;;11.40;87.00;;;;;;5094889;28;20420;-74
2021/04/18 02:14:35;;;;;;;16.90;6.63;;;11.40;87.10;;;;;;5092500;27;20482;-75
2021/04/18 02:17:08;;;;;;;15.75;6.63;;;11.40;87.10;;;;;;5091969;28;20423;-75
2021/04/18 02:19:35;;;;;;;16.77;6.60;;;11.40;87.20;;;;;;5118648;27;20449;-75
2021/04/18 02:22:03;;;;;;;18.38;6.65;;;11.40;87.10;;;;;;5108177;28;20411;-75
2021/04/18 02:24:34;;;;;;;15.93;6.72;;;11.40;87.10;;;;;;5111914;27;20423;-76
2021/04/18 02:27:02;;;;;;;16.42;6.80;;;11.30;87.30;;;;;;5092606;28;20409;-74
2021/04/18 02:29:36;;;;;;;16.73;7.03;;;11.30;87.40;;;;;;5092476;28;20518;-73
2021/04/18 02:32:10;;;;;;;18.03;7.00;;;11.40;87.60;;;;;;5089558;28;20438;-74
2021/04/18 02:34:44;;;;;;;15.70;6.97;;;11.30;87.50;;;;;;5110651;27;20419;-73
2021/04/18 02:37:11;;;;;;;18.20;7.35;;;11.30;87.70;;;;;;5107006;27;20785;-75
2021/04/18 02:39:38;;;;;;;18.17;7.40;;;11.30;87.70;;;;;;5102914;27;20637;-73
2021/04/18 02:42:05;;;;;;;19.05;7.20;;;11.20;87.80;;;;;;5106272;28;20423;-74
2021/04/18 02:44:33;;;;;;;23.15;7.35;;;11.30;88.00;;;;;;5095920;28;20431;-75
2021/04/18 02:47:00;;;;;;;20.65;7.35;;;11.30;88.10;;;;;;5122417;27;20764;-75
2021/04/18 02:49:26;;;;;;;17.10;7.23;;;11.30;88.30;;;;;;5121072;27;20422;-75
2021/04/18 02:51:55;;;;;;;19.70;7.40;;;11.30;88.40;;;;;;5093058;27;21104;-75
2021/04/18 02:54:22;;;;;;;20.67;7.73;;;11.30;88.20;;;;;;5094535;27;20417;-75
2021/04/18 02:56:55;;;;;;;17.35;7.78;;;11.30;88.20;;;;;;5092893;27;20927;-74
2021/04/18 02:59:22;;;;;;;17.55;7.25;;;11.30;88.00;;;;;;5106535;28;20412;-74
2021/04/18 03:01:49;;;;;;;17.33;7.10;;;11.30;88.20;;;;;;5094299;28;20500;-75
2021/04/18 03:04:16;;;;;;;16.50;7.57;;;11.30;87.80;;;;;;5093952;28;20916;-75
2021/04/18 03:06:42;;;;;;;18.10;7.63;;;11.30;87.60;;;;;;5091212;28;20440;-75
2021/04/18 03:09:09;;;;;;;17.63;7.60;;;11.20;88.40;;;;;;5105093;27;20423;-74
2021/04/18 03:11:41;;;;;;;18.40;7.73;;;11.20;87.60;;;;;;5090780;28;20776;-75
2021/04/18 03:14:29;;;;;;;17.90;7.63;;;11.20;87.90;;;;;;5092250;28;20420;-75
2021/04/18 03:16:57;;;;;;;17.42;7.57;;;11.20;87.60;;;;;;5110912;27;20790;-75
2021/04/18 03:19:31;;;;;;;18.48;7.38;;;11.10;87.80;;;;;;5111166;27;20492;-75
2021/04/18 03:22:00;;;;;;;16.50;7.60;;;11.20;87.90;;;;;;5104250;28;20411;-78
2021/04/18 03:24:29;;;;;;;18.40;7.82;;;11.20;87.60;;;;;;5090120;28;20454;-75
2021/04/18 03:26:55;;;;;;;17.27;7.80;;;11.10;87.60;;;;;;5123989;27;21869;-75
2021/04/18 03:29:22;;;;;;;15.70;7.93;;;11.10;87.60;;;;;;5099222;28;20408;-74
2021/04/18 03:31:50;;;;;;;18.83;7.85;;;11.00;87.80;;;;;;5091334;27;20420;-76
2021/04/18 03:34:17;;;;;;;15.88;7.75;;;11.00;88.00;;;;;;5096393;28;20431;-75
2021/04/18 03:36:43;;;;;;;16.83;7.68;;;11.00;88.00;;;;;;5121015;27;20428;-75
2021/04/18 03:39:15;;;;;;;18.05;8.02;;;11.00;88.10;;;;;;5105097;27;20783;-75
2021/04/18 03:41:45;;;;;;;17.40;7.78;;;10.90;88.00;;;;;;5102303;27;20790;-72
2021/04/18 03:44:12;;;;;;;18.42;7.90;;;10.90;88.10;;;;;;5100220;27;20435;-74
2021/04/18 03:46:38;;;;;;;16.88;7.85;;;10.90;88.40;;;;;;5129288;27;20503;-74
2021/04/18 03:49:06;;;;;;;20.13;8.23;;;10.90;88.40;;;;;;5107259;28;20416;-73
2021/04/18 03:51:34;;;;;;;17.47;8.07;;;10.90;88.40;;;;;;5089029;28;20557;-74
2021/04/18 03:54:07;;;;;;;16.92;8.25;;;10.80;88.00;;;;;;5108483;28;20985;-75
2021/04/18 03:56:35;;;;;;;19.37;8.27;;;10.80;87.70;;;;;;5099473;28;20932;-74
2021/04/18 03:59:03;;;;;;;21.13;8.38;;;10.80;87.10;;;;;;5103992;28;20404;-74
2021/04/18 04:01:30;;;;;;;20.07;8.53;;;10.80;86.80;;;;;;5103171;28;20476;-74
2021/04/18 04:04:02;;;;;;;19.48;8.95;;;10.70;86.40;;;;;;5107586;28;20502;-76
2021/04/18 04:06:34;;;;;;;21.33;8.97;;;10.70;86.40;;;;;;5086872;28;20425;-74
2021/04/18 04:09:03;;;;;;;19.45;8.80;;;10.70;86.70;;;;;;5086178;28;21090;-75
2021/04/18 04:11:40;;;;;;;18.73;8.47;;;10.60;86.90;;;;;;5085060;28;20417;-74
2021/04/18 04:14:12;;;;;;;16.05;8.07;;;10.60;86.70;;;;;;5084616;28;20498;-77
2021/04/18 04:16:44;;;;;;;17.40;8.52;;;10.60;86.90;;;;;;5086763;28;20508;-74
2021/04/18 04:19:14;;;;;;;19.45;8.77;;;10.50;87.00;;;;;;5086842;28;20843;-75
2021/04/18 04:22:00;;;;;;;18.92;9.05;;;10.50;87.20;;;;;;5081868;28;20467;-75
2021/04/18 04:24:34;;;;;;;18.38;9.13;;;10.50;87.50;;;;;;5086704;28;20987;-75
2021/04/18 04:27:00;;;;;;;17.13;8.70;;;10.40;87.50;;;;;;5086824;28;20472;-74
2021/04/18 04:29:27;;;;;;;17.40;9.27;;;10.40;87.60;;;;;;5088208;28;20413;-73
2021/04/18 04:31:53;;;;;;;15.70;8.60;;;10.40;88.00;;;;;;5075787;28;20409;-74
2021/04/18 04:34:20;;;;;;;19.67;9.38;;;10.40;88.20;;;;;;5087722;28;20470;-73
2021/04/18 04:36:47;;;;;;;18.77;8.75;;;10.30;88.40;;;;;;5087201;28;20410;-74
2021/04/18 04:39:14;;;;;;;16.63;8.35;;;10.30;88.20;;;;;;5084001;28;20461;-74
2021/04/18 04:41:40;;;;;;;22.30;9.05;;;10.30;88.10;;;;;;5085076;28;20410;-75
2021/04/18 04:44:08;;;;;;;19.67;8.85;;;10.30;87.80;;;;;;5088584;28;20421;-73
2021/04/18 04:46:35;;;;;;;18.85;8.77;;;10.30;87.60;;;;;;5086014;28;20420;-74
2021/04/18 04:49:01;;;;;;;18.98;8.60;;;10.30;88.40;;;;;;5083088;28;20674;-74
2021/04/18 04:51:27;;;;;;;19.08;9.13;;;10.30;88.50;;;;;;5086876;28;20999;-74
2021/04/18 04:53:54;;;;;;;22.88;9.05;;;10.30;88.50;;;;;;5080715;28;20954;-73
2021/04/18 04:56:21;;;;;;;19.92;8.93;;;10.30;88.70;;;;;;5088531;28;21086;-75
2021/04/18 04:58:47;;;;;;;18.52;8.63;;;10.30;88.80;;;;;;5087331;28;20423;-74
2021/04/18 05:01:14;;;;;;;20.52;8.93;;;10.30;89.00;;;;;;5081865;28;20428;-74
2021/04/18 05:03:40;;;;;;;21.13;9.07;;;10.30;90.00;;;;;;5086367;28;20822;-73
2021/04/18 05:06:07;;;;;;;19.25;9.10;;;10.30;89.40;;;;;;5100273;28;20802;-74
2021/04/18 05:08:33;;;;;;;18.83;9.30;;;10.20;89.40;;;;;;5114115;28;20420;-73
2021/04/18 05:10:59;;;;;;;22.73;9.15;;;10.30;89.60;;;;;;5119483;28;20999;-75
2021/04/18 05:13:27;;;;;;;19.98;9.20;;;10.20;89.40;;;;;;5115930;27;20965;-75
2021/04/18 05:15:53;;;;;;;21.30;9.60;;;10.20;89.00;;;;;;5116963;27;20434;-75
2021/04/18 05:18:19;;;;;;;19.58;9.30;;;10.20;88.50;;;;;;5109637;28;20988;-75
2021/04/18 05:20:46;;;;;;;18.65;9.00;;;10.10;88.70;;;;;;5111624;28;20416;-75
2021/04/18 05:23:12;;;;;;;15.68;8.77;;;10.10;89.00;;;;;;5113706;27;20416;-74
2021/04/18 05:25:39;;;;;;;19.67;8.98;;;10.10;89.00;;;;;;5117237;27;20426;-74
2021/04/18 05:28:05;;;;;;;19.27;8.90;;;10.10;89.10;;;;;;5124592;27;20837;-74
2021/04/18 05:30:33;;;;;;;18.50;9.13;;;10.10;89.10;;;;;;5093127;27;20803;-74
2021/04/18 05:32:59;;;;;;;17.08;8.98;;;10.10;89.60;;;;;;5132496;27;20527;-74
2021/04/18 05:35:26;;;;;;;15.85;9.10;;;10.20;89.20;;;;;;5120899;27;20875;-74
2021/04/18 05:37:52;;;;;;;17.23;9.25;;;10.10;89.30;;;;;;5120020;27;20766;-74
2021/04/18 05:40:19;;;;;;;17.30;9.38;;;10.20;89.60;;;;;;5111565;27;20408;-74
2021/04/18 05:42:45;;;;;;;19.98;9.75;;;10.10;89.30;;;;;;5101677;27;20429;-75
2021/04/18 05:45:12;;;;;;;20.40;9.47;;;10.10;89.60;;;;;;5124218;27;20887;-72
2021/04/18 05:47:39;;;;;;;18.17;9.27;;;10.20;89.80;;;;;;5113657;27;20414;-75
2021/04/18 05:50:06;;;;;;;20.00;9.55;;;10.20;89.70;;;;;;5092872;28;20435;-74
2021/04/18 05:52:33;;;;;;;24.08;9.77;;;10.20;89.70;;;;;;5094508;28;20427;-79
2021/04/18 05:54:59;;;;;;;22.05;9.93;;;10.20;89.90;;;;;;5109271;27;20498;-74
2021/04/18 05:57:26;;;;;;;19.90;9.82;;;10.20;90.00;;;;;;5092704;28;20947;-75
2021/04/18 05:59:52;;;;;;;19.70;10.17;;;10.30;90.40;;;;;;5107130;28;20430;-74
2021/04/18 06:02:18;;;;;;;22.30;11.77;;;10.30;90.40;;;;;;5116150;27;20415;-76
2021/04/18 06:04:46;;;;;;;20.83;11.10;;;10.30;90.30;;;;;;5107962;27;20427;-76
2021/04/18 06:07:12;;;;;;;20.90;11.20;;;10.30;90.60;;;;;;5113934;27;20768;-75
2021/04/18 06:09:38;;;;;;;21.30;10.40;;;10.40;91.20;;;;;;5110803;27;20428;-75
2021/04/18 06:12:05;;;;;;;22.75;11.13;;;10.40;91.00;;;;;;5106394;28;20457;-75
2021/04/18 06:14:32;;;;;;;18.90;10.65;;;10.40;91.10;;;;;;5109685;27;20921;-74
2021/04/18 06:16:58;;;;;;;22.52;10.35;;;10.50;91.40;;;;;;5096469;28;20957;-75
2021/04/18 06:19:25;;;;;;;21.07;10.40;;;10.50;91.50;;;;;;5110061;28;21170;-75
2021/04/18 06:21:52;;;;;;;27.05;10.35;;;10.50;91.80;;;;;;5091159;28;20470;-75
2021/04/18 06:24:18;;;;;;;21.33;9.80;;;10.60;92.10;;;;;;5109111;27;20457;-74
2021/04/18 06:26:45;;;;;;;21.42;9.50;;;10.60;92.20;;;;;;5107273;27;20498;-75
2021/04/18 06:29:11;;;;;;;22.52;10.13;;;10.70;92.40;;;;;;5112211;27;20420;-74
2021/04/18 06:31:38;;;;;;;21.92;9.90;;;10.70;92.50;;;;;;5112898;27;20786;-73
2021/04/18 06:34:04;;;;;;;27.98;10.50;;;10.70;92.60;;;;;;5110769;27;20427;-76
2021/04/18 06:36:32;;;;;;;21.77;10.03;;;10.80;92.80;;;;;;5106756;27;20432;-75
2021/04/18 06:38:59;;;;;;;26.33;9.93;;;10.80;92.70;;;;;;5092757;27;20465;-76
2021/04/18 06:41:27;;;;;;;21.88;9.73;;;10.90;92.80;;;;;;5098118;28;20905;-73
2021/04/18 06:43:53;;;;;;;22.35;9.93;;;11.00;92.70;;;;;;5109223;28;20499;-74
2021/04/18 06:46:21;;;;;;;25.55;11.00;;;11.00;92.60;;;;;;5109797;28;20456;-73
2021/04/18 06:48:49;;;;;;;23.80;11.27;;;11.10;92.60;;;;;;5112480;27;20420;-72
2021/04/18 06:51:16;;;;;;;22.48;10.50;;;11.20;92.50;;;;;;5106685;28;20482;-74
2021/04/18 06:53:43;;;;;;;25.63;11.82;;;11.20;92.40;;;;;;5107186;28;20507;-74
2021/04/18 06:56:10;;;;;;;24.05;11.98;;;11.30;92.30;;;;;;5114448;27;20431;-74
2021/04/18 06:58:37;;;;;;;26.70;12.25;;;11.30;92.20;;;;;;5117388;27;20416;-75
2021/04/18 07:01:04;;;;;;;25.80;13.00;;;11.40;92.10;;;;;;5097060;28;20473;-74
2021/04/18 07:03:31;;;;;;;25.35;12.82;;;11.50;91.90;;;;;;5098711;27;20483;-74
2021/04/18 07:05:59;;;;;;;25.60;12.50;;;11.50;91.50;;;;;;5109438;27;20952;-74
2021/04/18 07:08:28;;;;;;;25.77;12.00;;;11.50;91.40;;;;;;5094102;27;20422;-75
2021/04/18 07:11:12;;;;;;;22.67;12.13;;;11.50;91.00;;;;;;5108020;27;20991;-74
2021/04/18 07:13:39;;;;;;;23.85;11.90;;;11.50;90.80;;;;;;5093553;28;20414;-74
2021/04/18 07:16:22;;;;;;;25.48;12.48;;;11.50;90.80;;;;;;5121269;27;20516;-74
2021/04/18 07:18:50;;;;;;;27.55;13.48;;;11.50;90.90;;;;;;5122881;27;20911;-75
2021/04/18 07:21:16;;;;;;;25.58;12.63;;;11.50;90.80;;;;;;5115395;27;20406;-75
2021/04/18 07:23:43;;;;;;;26.70;12.80;;;11.50;90.90;;;;;;5116087;27;20783;-75
2021/04/18 07:26:23;;;;;;;24.63;12.70;;;11.50;91.00;;;;;;5108485;27;20410;-75
2021/04/18 07:28:50;;;;;;;27.42;11.63;;;11.50;90.80;;;;;;5096318;28;20428;-75
2021/04/18 07:31:30;;;;;;;29.63;11.52;;;11.50;91.10;;;;;;5102108;27;20418;-75
2021/04/18 07:34:04;;;;;;;23.50;11.73;;;11.50;91.00;;;;;;5113793;27;20429;-76
2021/04/18 07:36:31;;;;;;;23.58;12.00;;;11.60;91.10;;;;;;5098286;27;20962;-75
2021/04/18 07:38:58;;;;;;;20.95;11.55;;;11.60;91.10;;;;;;5110958;27;20422;-76
2021/04/18 07:41:26;;;;;;;22.45;11.40;;;11.60;90.50;;;;;;5111683;28;20400;-77
2021/04/18 07:43:53;;;;;;;23.25;11.73;;;11.60;90.50;;;;;;5102889;28;20426;-74
2021/04/18 07:46:21;;;;;;;22.73;11.23;;;11.60;90.50;;;;;;5119937;27;20402;-76
2021/04/18 07:48:48;;;;;;;21.65;9.77;;;11.60;90.40;;;;;;5110124;27;20492;-75
2021/04/18 07:51:17;;;;;;;21.40;9.20;;;11.60;90.30;;;;;;5110454;27;20780;-75
2021/04/18 07:53:45;;;;;;;16.50;8.80;;;11.60;90.30;;;;;;5113148;27;20439;-76
2021/04/18 07:56:13;;;;;;;16.58;9.05;;;11.60;90.30;;;;;;5116134;27;20419;-74
2021/04/18 07:58:41;;;;;;;20.30;8.75;;;11.60;90.10;;;;;;5103825;27;20498;-75
2021/04/18 08:01:08;;;;;;;18.58;8.40;;;11.60;90.10;;;;;;5106106;27;20946;-74
2021/04/18 08:03:36;;;;;;;18.33;8.52;;;11.60;89.80;;;;;;5112290;27;20488;-75
2021/04/18 08:06:04;;;;;;;19.67;9.02;;;11.70;89.40;;;;;;5109608;27;20439;-75
2021/04/18 08:08:43;;;;;;;19.70;8.40;;;11.70;88.60;;;;;;5111580;28;20428;-74
2021/04/18 08:11:11;;;;;;;17.00;8.10;;;11.70;88.30;;;;;;5105375;28;20432;-74
2021/04/18 08:13:41;;;;;;;16.10;8.13;;;11.80;87.60;;;;;;5088123;28;20422;-73
2021/04/18 08:16:08;;;;;;;20.75;8.02;;;11.80;87.50;;;;;;5103306;28;20428;-74
2021/04/18 08:18:36;;;;;;;18.40;8.45;;;11.80;87.80;;;;;;5087661;28;20435;-74
2021/04/18 08:21:21;;;;;;;18.00;8.10;;;11.90;87.30;;;;;;5103695;28;20434;-74
2021/04/18 08:23:47;;;;;;;18.90;8.10;;;11.90;87.20;;;;;;5087595;28;20430;-74
2021/04/18 08:26:16;;;;;;;15.25;7.53;;;12.00;87.10;;;;;;5106366;28;20902;-75
2021/04/18 08:29:12;;;;;;;14.60;6.50;;;12.00;86.30;;;;;;5099551;28;20421;-72
2021/04/18 08:32:13;;;;;;;15.85;6.45;;;12.10;85.00;;;;;;5101960;28;20416;-76
2021/04/18 08:34:43;;;;;;;12.75;6.20;;;12.20;84.40;;;;;;5103059;28;20432;-73
2021/04/18 08:37:19;;;;;;;16.08;7.05;;;12.20;82.90;;;;;;5100464;28;20481;-73
2021/04/18 08:39:46;;;;;;;17.88;7.53;;;12.30;83.10;;;;;;5085167;28;20988;-73
2021/04/18 08:42:25;;;;;;;13.80;7.13;;;12.40;82.60;;;;;;5101380;28;20771;-73
2021/04/18 08:44:53;;;;;;;15.98;7.18;;;12.40;81.80;;;;;;5085357;28;20548;-74
2021/04/18 08:47:21;;;;;;;14.50;7.05;;;12.40;80.70;;;;;;5098119;28;20751;-74
2021/04/18 08:49:50;;;;;;;14.68;6.60;;;12.50;81.20;;;;;;5112513;27;21543;-73
2021/04/18 08:52:22;;;;;;;12.80;6.53;;;12.50;80.70;;;;;;5086292;27;20457;-74
2021/04/18 08:54:52;;;;;;;17.23;6.73;;;12.60;81.20;;;;;;5107081;27;20423;-75
2021/04/18 08:57:20;;;;;;;17.83;6.87;;;12.70;80.10;;;;;;5123062;27;20430;-72
2021/04/18 08:59:52;;;;;;;12.38;6.35;;;12.80;79.30;;;;;;5111384;27;20931;-73
2021/04/18 09:02:20;;;;;;;17.02;6.82;;;12.80;78.50;;;;;;5108622;27;20432;-74
2021/04/18 09:04:48;;;;;;;15.63;6.50;;;12.90;78.20;;;;;;5109294;27;20527;-74
2021/04/18 09:07:16;;;;;;;14.07;6.00;;;12.90;78.30;;;;;;5117307;27;22544;-73
2021/04/18 09:09:43;;;;;;;14.75;6.10;;;13.00;78.60;;;;;;5087110;28;20423;-75
2021/04/18 09:12:11;;;;;;;12.95;5.80;;;13.00;75.80;;;;;;5107733;28;20774;-73
2021/04/18 09:14:41;;;;;;;11.77;5.53;;;13.20;75.00;;;;;;5122394;27;20433;-75
2021/04/18 09:17:16;;;;;;;10.52;4.90;;;13.20;73.80;;;;;;5090156;28;20416;-73
2021/04/18 09:19:48;;;;;;;11.85;4.68;;;13.30;71.50;;;;;;5109396;27;20420;-74
2021/04/18 09:22:17;;;;;;;9.55;5.18;;;13.40;68.70;;;;;;5110891;27;20418;-75
2021/04/18 09:24:46;;;;;;;10.68;4.93;;;13.40;68.80;;;;;;5116699;27;20484;-74
2021/04/18 09:27:16;;;;;;;12.52;5.47;;;13.50;68.10;;;;;;5107762;27;20427;-74
2021/04/18 09:29:48;;;;;;;11.10;5.17;;;13.50;67.70;;;;;;5108346;28;20789;-75
2021/04/18 09:32:16;;;;;;;11.88;4.78;;;13.60;66.40;;;;;;5105975;28;20432;-74
2021/04/18 09:34:46;;;;;;;9.80;4.40;;;13.70;65.90;;;;;;5108071;28;20468;-74
2021/04/18 09:37:18;;;;;;;10.33;4.47;;;13.80;63.80;;;;;;5112399;27;20410;-75
2021/04/18 09:39:50;;;;;;;12.88;5.47;;;13.80;62.70;;;;;;5115305;27;20806;-74
2021/04/18 09:42:17;;;;;;;10.48;4.63;;;13.90;64.90;;;;;;5108623;27;20427;-74
2021/04/18 09:44:45;;;;;;;9.60;4.50;;;14.00;64.70;;;;;;5104323;28;20441;-74
2021/04/18 09:47:26;;;;;;;10.10;4.45;;;14.00;65.50;;;;;;5108139;28;20424;-71
2021/04/18 09:49:58;;;;;;;9.32;4.50;;;14.10;65.30;;;;;;5109022;28;20439;-74
2021/04/18 09:52:33;;;;;;;9.57;4.00;;;14.20;63.50;;;;;;5105979;27;20424;-74
2021/04/18 09:55:12;;;;;;;9.68;3.90;;;14.20;59.70;;;;;;5112141;27;20451;-74
2021/04/18 09:57:47;;;;;;;9.93;4.25;;;14.30;59.10;;;;;;5102768;27;20550;-71
2021/04/18 10:00:21;;;;;;;7.93;4.50;;;14.30;60.10;;;;;;5101370;27;20439;-73
2021/04/18 10:02:59;;;;;;;8.48;4.20;;;14.40;59.90;;;;;;5121219;27;20428;-74
2021/04/18 10:05:26;;;;;;;12.35;4.85;;;14.40;58.60;;;;;;5115103;27;20461;-74
2021/04/18 10:08:18;;;;;;;13.55;6.00;;;14.40;58.70;;;;;;5095063;28;20935;-72
2021/04/18 10:10:45;;;;;;;18.77;8.63;;;14.40;60.80;;;;;;5090700;28;20784;-73
2021/04/18 10:13:12;;;;;;;21.20;9.00;;;14.40;65.90;;;;;;5089726;28;20449;-70
2021/04/18 10:15:54;;;;;;;19.52;8.18;;;14.40;70.10;;;;;;5109947;27;20419;-72
2021/04/18 10:18:21;;;;;;;16.95;7.38;;;14.50;70.10;;;;;;5108962;28;20522;-71
2021/04/18 10:20:49;;;;;;;16.10;6.60;;;14.50;69.90;;;;;;5114731;27;20447;-71
2021/04/18 10:23:16;;;;;;;18.65;8.10;;;14.70;69.10;;;;;;5110123;28;20404;-71
2021/04/18 10:25:42;;;;;;;17.03;7.23;;;14.80;72.60;;;;;;5110649;28;20460;-74
2021/04/18 10:28:10;;;;;;;18.27;6.88;;;14.80;73.80;;;;;;5112950;27;20474;-72
2021/04/18 10:30:39;;;;;;;16.60;7.00;;;14.90;73.80;;;;;;5111094;27;20843;-71
2021/04/18 10:33:06;;;;;;;16.30;7.07;;;15.00;74.10;;;;;;5112651;27;20431;-72
2021/04/18 10:35:32;;;;;;;19.67;7.30;;;15.10;74.00;;;;;;5123932;27;20424;-72
2021/04/18 10:38:00;;;;;;;19.03;6.87;;;15.10;74.20;;;;;;5111436;27;20420;-72
2021/04/18 10:40:28;;;;;;;17.10;6.80;;;15.20;73.50;;;;;;5100275;27;20522;-72
2021/04/18 10:42:54;;;;;;;17.08;6.50;;;15.30;73.30;;;;;;5105925;28;20424;-74
2021/04/18 10:50:45;;;;;;;15.55;5.65;;;15.70;71.00;;;;;;4993408;22;20435;-73
2021/04/18 10:53:13;;;;;;;13.95;5.80;;;15.80;70.50;;;;;;5065015;28;20450;-72
2021/04/18 10:55:39;;;;;;;18.30;5.78;;;15.90;70.10;;;;;;5067104;28;20427;-75
2021/04/18 10:58:06;;;;;;;15.52;5.80;;;16.00;70.10;;;;;;5070330;28;20484;-72
2021/04/18 11:00:32;;;;;;;18.63;7.65;;;16.10;69.70;;;;;;5086257;28;20401;-71
2021/04/18 11:02:59;;;;;;;21.17;6.88;;;16.20;69.20;;;;;;5078638;28;20414;-71
2021/04/18 11:05:25;;;;;;;17.40;5.63;;;16.20;68.70;;;;;;5073563;28;20447;-74
2021/04/18 11:07:51;;;;;;;16.60;5.65;;;16.20;69.70;;;;;;5076909;28;20406;-72
2021/04/18 11:10:19;;;;;;;14.35;5.53;;;16.20;68.90;;;;;;5067907;28;20423;-73
2021/04/18 11:12:45;;;;;;;15.85;5.95;;;16.10;69.40;;;;;;5085845;28;20405;-73
2021/04/18 11:15:13;;;;;;;15.13;5.40;;;16.10;69.20;;;;;;5081810;28;20434;-74
2021/04/18 11:17:39;;;;;;;17.60;5.80;;;16.10;69.30;;;;;;5070980;28;20434;-75
2021/04/18 11:20:07;;;;;;;17.85;6.07;;;16.10;69.30;;;;;;5076125;28;20430;-75
2021/04/18 11:22:33;;;;;;;16.47;5.63;;;16.00;69.70;;;;;;5069483;28;20411;-74
2021/04/18 11:25:00;;;;;;;15.10;5.50;;;16.00;70.10;;;;;;5084841;28;20790;-73
2021/04/18 11:27:27;;;;;;;17.48;5.55;;;15.90;70.40;;;;;;5071316;28;20426;-74
2021/04/18 11:29:54;;;;;;;15.50;5.32;;;15.90;70.70;;;;;;5080126;28;20415;-74
2021/04/18 11:32:21;;;;;;;17.67;5.72;;;16.00;70.70;;;;;;5080701;28;20506;-74
2021/04/18 11:34:47;;;;;;;19.47;6.07;;;16.00;69.90;;;;;;5082132;28;20418;-76
2021/04/18 11:37:13;;;;;;;14.93;5.50;;;16.00;70.20;;;;;;5075976;28;20434;-74
2021/04/18 11:39:40;;;;;;;19.97;6.00;;;16.00;69.70;;;;;;5084255;28;20422;-73
2021/04/18 11:42:07;;;;;;;16.83;6.03;;;16.10;69.20;;;;;;5071681;28;20424;-76
2021/04/18 11:44:35;;;;;;;16.88;6.07;;;16.10;69.20;;;;;;5069484;28;20739;-74
2021/04/18 11:47:01;;;;;;;15.63;6.30;;;16.00;69.80;;;;;;5083393;28;20478;-74
2021/04/18 11:49:28;;;;;;;14.65;5.70;;;15.90;69.80;;;;;;5074789;28;20427;-73
2021/04/18 11:51:54;;;;;;;15.23;6.15;;;16.00;70.10;;;;;;5080665;28;20415;-74
2021/04/18 11:54:20;;;;;;;20.65;5.68;;;16.00;70.00;;;;;;5074823;28;20463;-73
2021/04/18 11:56:47;;;;;;;17.73;5.78;;;16.00;70.10;;;;;;5074524;28;20431;-73
2021/04/18 11:59:13;;;;;;;18.55;5.65;;;16.00;70.10;;;;;;5068114;28;20419;-73
2021/04/18 12:01:40;;;;;;;16.88;5.25;;;16.00;69.90;;;;;;5082196;28;20775;-74
2021/04/18 12:04:06;;;;;;;17.77;5.83;;;16.00;70.10;;;;;;5078006;28;20434;-73
2021/04/18 12:06:33;;;;;;;16.63;5.40;;;16.00;70.20;;;;;;5074118;28;20769;-73
2021/04/18 12:09:00;;;;;;;18.70;5.68;;;16.00;70.20;;;;;;5069482;28;20899;-74
2021/04/18 12:11:26;;;;;;;14.80;5.30;;;16.10;70.20;;;;;;5075158;28;20946;-73
2021/04/18 12:13:52;;;;;;;15.18;5.10;;;16.20;69.50;;;;;;5069046;28;20427;-73
2021/04/18 12:16:19;;;;;;;18.80;5.32;;;16.30;68.80;;;;;;5068486;28;20411;-74
2021/04/18 12:18:46;;;;;;;14.55;4.85;;;16.40;69.40;;;;;;5071684;28;20419;-72
2021/04/18 12:21:13;;;;;;;16.52;5.60;;;16.50;69.20;;;;;;5079447;28;20528;-71
2021/04/18 12:23:39;;;;;;;17.63;5.80;;;16.70;67.90;;;;;;5075941;28;20419;-72
2021/04/18 12:26:06;;;;;;;12.95;4.82;;;16.90;66.30;;;;;;5073758;28;20415;-73
2021/04/18 12:28:32;;;;;;;18.42;5.22;;;17.00;66.00;;;;;;5081948;28;20430;-72
2021/04/18 12:30:58;;;;;;;17.45;5.00;;;17.10;66.60;;;;;;5089172;28;20417;-72
2021/04/18 12:33:25;;;;;;;16.20;5.22;;;17.10;65.20;;;;;;5090143;28;21095;-71
2021/04/18 12:35:52;;;;;;;16.42;5.63;;;17.20;65.10;;;;;;5070911;28;20419;-72
2021/04/18 12:38:19;;;;;;;17.17;6.30;;;17.20;65.60;;;;;;5073284;28;20416;-73
2021/04/18 12:40:45;;;;;;;14.60;5.75;;;17.30;66.20;;;;;;5075105;28;20403;-72
2021/04/18 12:43:11;;;;;;;14.75;5.50;;;17.40;65.10;;;;;;5081176;28;20418;-74
2021/04/18 12:45:38;;;;;;;16.35;5.32;;;17.50;65.20;;;;;;5080537;28;20421;-73
2021/04/18 12:48:05;;;;;;;14.93;5.03;;;17.70;63.70;;;;;;5079842;28;20409;-73